createdAt,value
2023-03-15T00:01:52.163Z,6.20
2023-03-15T00:04:24.581Z,7.20
2023-03-15T00:06:51.396Z,5.90
2023-03-15T00:09:18.233Z,7.00
2023-03-15T00:11:45.183Z,6.40
2023-03-15T00:14:12.172Z,6.10
2023-03-15T00:16:39.277Z,4.80
2023-03-15T00:19:10.535Z,5.80
2023-03-15T00:21:39.741Z,4.50
2023-03-15T00:24:06.877Z,3.20
2023-03-15T00:26:35.208Z,4.90
2023-03-15T00:29:02.108Z,4.40
2023-03-15T00:31:32.372Z,4.50
2023-03-15T00:33:59.263Z,3.20
2023-03-15T00:36:26.001Z,3.30
2023-03-15T00:38:54.946Z,6.80
2023-03-15T00:41:22.136Z,6.40
2023-03-15T00:43:50.704Z,3.90
2023-03-15T00:46:17.925Z,5.60
2023-03-15T00:48:47.861Z,5.40
2023-03-15T00:51:16.800Z,3.60
2023-03-15T00:53:44.639Z,4.90
2023-03-15T00:56:17.867Z,3.90
2023-03-15T00:58:44.586Z,5.00
2023-03-15T01:01:16.519Z,6.20
2023-03-15T01:03:44.287Z,3.80
2023-03-15T01:06:12.992Z,6.30
2023-03-15T01:08:40.793Z,7.10
2023-03-15T01:11:09.494Z,6.40
2023-03-15T01:13:36.582Z,4.60
2023-03-15T01:16:04.021Z,5.20
2023-03-15T01:18:31.390Z,5.50
2023-03-15T01:20:58.479Z,5.60
2023-03-15T01:23:25.314Z,5.50
2023-03-15T01:25:52.149Z,5.00
2023-03-15T01:28:19.782Z,3.60
2023-03-15T01:30:50.949Z,7.40
2023-03-15T01:33:18.719Z,6.80
2023-03-15T01:35:45.660Z,4.50
2023-03-15T01:38:12.720Z,5.40
2023-03-15T01:40:41.876Z,4.20
2023-03-15T01:43:20.290Z,6.60
2023-03-15T01:46:06.284Z,5.90
2023-03-15T01:48:50.221Z,7.40
2023-03-15T01:51:36.565Z,5.80
2023-03-15T01:54:08.172Z,5.50
2023-03-15T01:56:36.870Z,8.60
2023-03-15T01:59:04.721Z,8.90
2023-03-15T02:01:32.251Z,5.90
2023-03-15T02:04:04.556Z,5.70
2023-03-15T02:06:34.470Z,6.00
2023-03-15T02:09:07.972Z,7.20
2023-03-15T02:11:36.776Z,6.10
2023-03-15T02:14:05.231Z,5.60
2023-03-15T02:16:32.884Z,6.30
2023-03-15T02:19:05.675Z,7.40
2023-03-15T02:21:42.758Z,7.00
2023-03-15T02:24:43.437Z,6.20
2023-03-15T02:27:10.927Z,9.30
2023-03-15T02:29:38.614Z,6.20
2023-03-15T02:32:08.645Z,5.80
2023-03-15T02:34:37.010Z,7.50
2023-03-15T02:37:04.158Z,8.30
2023-03-15T02:39:31.520Z,7.40
2023-03-15T02:41:58.370Z,7.50
2023-03-15T02:44:38.446Z,6.00
2023-03-15T02:47:27.165Z,6.60
2023-03-15T02:49:54.077Z,9.10
2023-03-15T02:52:22.164Z,7.30
2023-03-15T02:54:49.405Z,6.80
2023-03-15T02:57:18.532Z,7.10
2023-03-15T02:59:46.400Z,7.20
2023-03-15T03:02:21.688Z,7.80
2023-03-15T03:04:48.576Z,7.20
2023-03-15T03:07:16.258Z,8.10
2023-03-15T03:09:53.437Z,8.10
2023-03-15T03:12:20.709Z,7.60
2023-03-15T03:14:53.829Z,10.50
2023-03-15T03:17:22.858Z,9.10
2023-03-15T03:19:51.233Z,8.60
2023-03-15T03:22:19.745Z,6.70
2023-03-15T03:24:48.090Z,7.70
2023-03-15T03:27:15.890Z,7.10
2023-03-15T03:29:44.945Z,7.00
2023-03-15T03:32:12.297Z,9.60
2023-03-15T03:34:39.065Z,8.00
2023-03-15T03:37:07.619Z,8.60
2023-03-15T03:40:14.071Z,10.60
2023-03-15T03:42:41.344Z,9.20
2023-03-15T03:45:09.011Z,8.70
2023-03-15T03:47:40.557Z,10.60
2023-03-15T03:50:10.205Z,9.80
2023-03-15T03:52:37.049Z,8.60
2023-03-15T03:55:13.054Z,10.70
2023-03-15T03:57:40.724Z,8.90
2023-03-15T04:00:13.626Z,9.40
2023-03-15T04:02:44.912Z,9.70
2023-03-15T04:07:43.180Z,9.20
2023-03-15T04:10:14.189Z,9.80
2023-03-15T04:12:43.429Z,10.90
2023-03-15T04:15:11.369Z,10.30
2023-03-15T04:17:39.111Z,9.90
2023-03-15T04:20:08.466Z,9.90
2023-03-15T04:22:38.226Z,11.50
2023-03-15T04:25:28.056Z,9.00
2023-03-15T04:28:14.139Z,9.90
2023-03-15T04:30:58.391Z,10.70
2023-03-15T04:33:44.121Z,10.90
2023-03-15T04:36:31.355Z,12.50
2023-03-15T04:39:16.434Z,11.10
2023-03-15T04:42:10.249Z,10.50
2023-03-15T04:44:56.570Z,10.40
2023-03-15T04:47:59.190Z,12.20
2023-03-15T04:50:30.754Z,13.10
2023-03-15T04:53:10.806Z,13.00
2023-03-15T04:55:53.307Z,8.50
2023-03-15T04:58:29.971Z,10.10
2023-03-15T05:01:34.502Z,12.20
2023-03-15T05:04:40.169Z,8.10
2023-03-15T05:07:20.404Z,8.50
2023-03-15T05:09:58.547Z,8.50
2023-03-15T05:12:25.518Z,7.30
2023-03-15T05:15:11.196Z,8.30
2023-03-15T05:17:47.806Z,5.80
2023-03-15T05:20:25.524Z,7.30
2023-03-15T05:23:13.584Z,6.80
2023-03-15T05:25:59.736Z,8.10
2023-03-15T05:28:51.992Z,5.80
2023-03-15T05:31:21.510Z,7.20
2023-03-15T05:34:04.100Z,10.10
2023-03-15T05:36:37.305Z,6.70
2023-03-15T05:39:22.316Z,6.40
2023-03-15T05:42:05.645Z,6.40
2023-03-15T05:45:08.392Z,5.80
2023-03-15T05:48:01.458Z,11.80
2023-03-15T05:50:40.786Z,5.90
2023-03-15T05:53:31.248Z,8.10
2023-03-15T05:56:10.193Z,5.70
2023-03-15T05:58:55.649Z,7.80
2023-03-15T06:01:48.008Z,8.40
2023-03-15T06:04:20.698Z,4.40
2023-03-15T06:06:47.894Z,6.30
2023-03-15T06:09:14.761Z,6.80
2023-03-15T06:11:41.712Z,8.90
2023-03-15T06:14:12.056Z,10.30
2023-03-15T06:16:52.812Z,6.90
2023-03-15T06:19:20.886Z,9.50
2023-03-15T06:21:48.257Z,8.30
2023-03-15T06:24:25.019Z,6.90
2023-03-15T06:26:54.480Z,10.60
2023-03-15T06:29:22.139Z,7.80
2023-03-15T06:31:50.549Z,7.50
2023-03-15T06:34:18.180Z,9.00
2023-03-15T06:36:45.967Z,6.40
2023-03-15T06:39:12.887Z,8.70
2023-03-15T06:41:41.402Z,7.20
2023-03-15T06:44:14.273Z,6.50
2023-03-15T06:46:42.452Z,10.00
2023-03-15T06:49:11.971Z,8.60
2023-03-15T06:51:39.469Z,7.30
2023-03-15T06:54:07.523Z,8.90
2023-03-15T06:56:36.816Z,7.80
2023-03-15T06:59:04.091Z,7.50
2023-03-15T07:01:33.963Z,8.30
2023-03-15T07:04:01.666Z,7.50
2023-03-15T07:06:29.067Z,10.00
2023-03-15T07:08:58.087Z,7.40
2023-03-15T07:11:25.373Z,9.40
2023-03-15T07:13:58.508Z,8.20
2023-03-15T07:16:36.452Z,8.90
2023-03-15T07:19:04.295Z,6.80
2023-03-15T07:21:33.984Z,7.00
2023-03-15T07:24:01.997Z,6.80
2023-03-15T07:26:29.698Z,7.90
2023-03-15T07:29:00.118Z,8.70
2023-03-15T07:31:27.833Z,7.80
2023-03-15T07:33:55.463Z,9.00
2023-03-15T07:36:26.393Z,7.40
2023-03-15T07:38:56.583Z,10.60
2023-03-15T07:41:26.146Z,6.00
2023-03-15T07:44:16.476Z,8.50
2023-03-15T07:46:45.238Z,7.00
2023-03-15T07:49:12.488Z,7.20
2023-03-15T07:51:39.399Z,7.60
2023-03-15T07:54:11.068Z,5.80
2023-03-15T07:56:40.289Z,7.40
2023-03-15T07:59:10.775Z,6.30
2023-03-15T08:01:40.252Z,11.70
2023-03-15T08:04:08.570Z,12.50
2023-03-15T08:06:45.509Z,10.10
2023-03-15T08:09:12.484Z,8.80
2023-03-15T08:11:40.038Z,9.40
2023-03-15T08:14:13.719Z,8.40
2023-03-15T08:16:43.217Z,9.00
2023-03-15T08:19:10.587Z,8.20
2023-03-15T08:21:38.618Z,12.10
2023-03-15T08:24:06.868Z,6.90
2023-03-15T08:26:37.760Z,8.00
2023-03-15T08:29:04.801Z,7.90
2023-03-15T08:31:32.089Z,7.10
2023-03-15T08:33:59.202Z,7.80
2023-03-15T08:36:39.123Z,7.40
2023-03-15T08:39:08.147Z,7.20
2023-03-15T08:41:35.727Z,10.30
2023-03-15T08:44:05.225Z,8.30
2023-03-15T08:46:33.333Z,6.30
2023-03-15T08:49:02.300Z,6.70
2023-03-15T08:51:31.840Z,8.20
2023-03-15T08:53:59.168Z,9.30
2023-03-15T08:56:33.117Z,10.00
2023-03-15T08:59:00.363Z,10.30
2023-03-15T09:01:29.734Z,8.10
2023-03-15T09:03:56.687Z,7.50
2023-03-15T09:06:24.393Z,12.00
2023-03-15T09:08:53.236Z,12.10
2023-03-15T09:11:21.438Z,10.40
2023-03-15T09:13:48.623Z,9.70
2023-03-15T09:21:08.881Z,12.60
2023-03-15T09:23:37.214Z,10.80
2023-03-15T09:26:04.256Z,11.90
2023-03-15T09:28:31.349Z,11.60
2023-03-15T09:31:00.160Z,10.20
2023-03-15T09:33:27.590Z,13.10
2023-03-15T09:36:01.172Z,11.40
2023-03-15T09:38:28.876Z,14.30
2023-03-15T09:41:01.736Z,14.10
2023-03-15T09:44:13.592Z,14.90
2023-03-15T09:47:16.142Z,15.40
2023-03-15T09:49:51.833Z,19.90
2023-03-15T09:52:37.452Z,11.70
2023-03-15T09:55:23.594Z,13.10
2023-03-15T09:57:56.767Z,17.10
2023-03-15T10:00:45.956Z,14.70
2023-03-15T10:03:50.028Z,12.60
2023-03-15T10:06:26.705Z,11.80
2023-03-15T10:09:02.659Z,12.20
2023-03-15T10:11:49.935Z,7.70
2023-03-15T10:14:40.601Z,7.40
2023-03-15T10:17:11.926Z,8.70
2023-03-15T10:20:00.711Z,7.80
2023-03-15T10:22:31.085Z,9.40
2023-03-15T10:25:06.980Z,10.80
2023-03-15T10:27:38.688Z,12.90
2023-03-15T10:30:25.847Z,14.60
2023-03-15T10:33:35.900Z,11.10
2023-03-15T10:36:14.425Z,11.50
2023-03-15T10:38:44.864Z,13.30
2023-03-15T10:41:17.836Z,9.20
2023-03-15T10:44:00.948Z,9.50
2023-03-15T10:46:30.623Z,9.20
2023-03-15T10:48:59.588Z,11.60
2023-03-15T10:51:32.644Z,7.90
2023-03-15T10:58:41.626Z,7.70
2023-03-15T11:01:13.380Z,9.80
2023-03-15T11:03:41.114Z,10.10
2023-03-15T11:06:25.333Z,7.40
2023-03-15T11:09:11.122Z,8.30
2023-03-15T11:12:01.004Z,10.30
2023-03-15T11:14:43.642Z,9.20
2023-03-15T11:17:32.523Z,12.20
2023-03-15T11:20:12.859Z,8.80
2023-03-15T11:22:45.857Z,10.20
2023-03-15T11:35:08.961Z,12.20
2023-03-15T11:38:13.082Z,12.30
2023-03-15T11:40:45.070Z,16.60
2023-03-15T11:43:30.989Z,14.50
2023-03-15T11:46:04.585Z,11.50
2023-03-15T11:48:50.108Z,11.70
2023-03-15T11:51:18.100Z,14.30
2023-03-15T11:58:41.829Z,9.00
2023-03-15T12:01:10.305Z,9.40
2023-03-15T12:03:41.873Z,10.30
2023-03-15T12:06:16.704Z,9.50
2023-03-15T12:09:03.215Z,11.20
2023-03-15T12:25:21.760Z,15.00
2023-03-15T12:27:52.980Z,11.60
2023-03-15T12:30:30.483Z,9.30
2023-03-15T12:32:58.322Z,11.50
2023-03-15T12:35:29.141Z,9.90
2023-03-15T12:37:56.447Z,9.80
2023-03-15T12:45:16.279Z,9.90
2023-03-15T12:47:49.598Z,9.80
2023-03-15T12:50:38.221Z,8.60
2023-03-15T12:53:16.243Z,8.50
2023-03-15T12:55:42.983Z,7.30
2023-03-15T12:58:12.798Z,13.00
2023-03-15T13:00:40.613Z,8.70
2023-03-15T13:03:08.098Z,7.40
2023-03-15T13:06:03.780Z,7.30
2023-03-15T13:08:37.877Z,7.90
2023-03-15T13:11:11.214Z,6.70
2023-03-15T13:13:56.626Z,7.50
2023-03-15T13:16:35.404Z,6.50
2023-03-15T13:19:29.920Z,5.80
2023-03-15T13:22:20.740Z,6.00
2023-03-15T13:25:09.252Z,7.50
2023-03-15T13:27:58.501Z,7.20
2023-03-15T13:30:36.754Z,6.20
2023-03-15T13:33:30.849Z,6.40
2023-03-15T13:38:54.339Z,7.50
2023-03-15T13:41:24.105Z,6.00
2023-03-15T13:43:52.397Z,6.00
2023-03-15T13:46:26.622Z,5.80
2023-03-15T13:48:55.620Z,8.30
2023-03-15T13:51:27.138Z,8.60
2023-03-15T13:54:02.848Z,4.40
2023-03-15T13:56:46.817Z,7.90
2023-03-15T13:59:15.570Z,6.40
2023-03-15T14:01:42.568Z,7.90
2023-03-15T14:04:16.802Z,7.30
2023-03-15T14:06:45.176Z,6.90
2023-03-15T14:09:21.015Z,8.10
2023-03-15T14:12:05.379Z,7.70
2023-03-15T14:14:38.026Z,8.50
2023-03-15T14:17:18.702Z,7.30
2023-03-15T14:19:53.971Z,7.90
2023-03-15T14:22:21.298Z,9.60
2023-03-15T14:24:51.241Z,7.80
2023-03-15T14:27:26.859Z,10.30
2023-03-15T14:30:00.841Z,7.20
2023-03-15T14:32:35.203Z,10.20
2023-03-15T14:35:07.465Z,9.30
2023-03-15T14:37:43.913Z,10.70
2023-03-15T14:40:28.518Z,7.60
2023-03-15T14:42:58.586Z,7.70
2023-03-15T14:45:29.562Z,10.60
2023-03-15T14:48:26.769Z,9.70
2023-03-15T14:50:57.083Z,10.90
2023-03-15T14:53:27.573Z,12.50
2023-03-15T14:55:57.572Z,7.70
2023-03-15T14:58:27.547Z,8.50
2023-03-15T15:00:58.362Z,9.80
2023-03-15T15:03:41.619Z,10.30
2023-03-15T15:06:12.471Z,9.40
2023-03-15T15:08:48.612Z,9.80
2023-03-15T15:11:17.566Z,14.40
2023-03-15T15:13:49.104Z,11.50
2023-03-15T15:16:18.639Z,10.60
2023-03-15T15:18:47.853Z,11.70
2023-03-15T15:21:33.510Z,9.60
2023-03-15T15:31:55.604Z,8.90
2023-03-15T15:34:22.692Z,9.30
2023-03-15T15:36:49.810Z,13.40
2023-03-15T15:39:16.737Z,9.00
2023-03-15T15:41:43.531Z,11.20
2023-03-15T15:44:17.996Z,10.50
2023-03-15T15:46:45.061Z,12.00
2023-03-15T15:49:11.835Z,9.00
2023-03-15T15:51:42.353Z,8.00
2023-03-15T15:54:16.284Z,12.60
2023-03-15T15:56:53.919Z,11.40
2023-03-15T15:59:21.132Z,7.20
2023-03-15T16:02:00.060Z,14.90
2023-03-15T16:04:30.385Z,9.10
2023-03-15T16:07:00.751Z,8.00
2023-03-15T16:09:28.033Z,7.80
2023-03-15T16:11:56.380Z,11.30
2023-03-15T16:14:23.242Z,9.50
2023-03-15T16:16:50.174Z,10.10
2023-03-15T16:19:17.565Z,12.20
2023-03-15T16:21:47.220Z,9.70
2023-03-15T16:24:20.567Z,11.80
2023-03-15T16:26:47.405Z,10.20
2023-03-15T16:29:19.422Z,11.10
2023-03-15T16:31:46.544Z,10.20
2023-03-15T16:34:14.636Z,13.70
2023-03-15T16:36:48.520Z,12.50
2023-03-15T16:39:16.417Z,10.30
2023-03-15T16:41:43.820Z,13.70
2023-03-15T16:44:12.194Z,12.50
2023-03-15T16:46:39.248Z,14.80
2023-03-15T16:49:08.327Z,13.50
2023-03-15T16:51:36.897Z,13.50
2023-03-15T16:54:16.124Z,15.30
2023-03-15T16:56:46.548Z,14.70
2023-03-15T16:59:14.798Z,18.80
2023-03-15T17:01:43.522Z,15.80
2023-03-15T17:04:10.665Z,14.60
2023-03-15T17:06:38.284Z,13.80
2023-03-15T17:09:09.755Z,15.20
2023-03-15T17:11:40.843Z,19.10
2023-03-15T17:14:09.310Z,15.90
2023-03-15T17:16:36.733Z,19.30
2023-03-15T17:19:03.928Z,16.90
2023-03-15T17:21:30.872Z,18.60
2023-03-15T17:23:57.816Z,17.00
2023-03-15T17:26:34.114Z,21.80
2023-03-15T17:29:02.047Z,22.10
2023-03-15T17:31:29.464Z,19.90
2023-03-15T17:33:56.867Z,20.90
2023-03-15T17:36:24.937Z,25.70
2023-03-15T17:38:54.542Z,24.80
2023-03-15T17:41:24.020Z,22.70
2023-03-15T17:43:51.018Z,21.60
2023-03-15T17:46:18.724Z,19.70
2023-03-15T17:48:46.409Z,20.40
2023-03-15T17:51:21.608Z,17.90
2023-03-15T17:53:49.103Z,21.00
2023-03-15T17:56:16.314Z,18.70
2023-03-15T17:58:46.518Z,21.20
2023-03-15T18:01:23.856Z,21.90
2023-03-15T18:03:55.136Z,23.40
2023-03-15T18:06:23.924Z,24.40
2023-03-15T18:08:54.326Z,27.20
2023-03-15T18:11:25.329Z,29.10
2023-03-15T18:13:52.314Z,27.00
2023-03-15T18:16:25.843Z,28.00
2023-03-15T18:18:55.370Z,27.60
2023-03-15T18:21:24.613Z,26.90
2023-03-15T18:23:54.138Z,27.60
2023-03-15T18:26:21.277Z,27.80
2023-03-15T18:28:48.625Z,25.20
2023-03-15T18:31:22.591Z,21.20
2023-03-15T18:36:44.780Z,26.10
2023-03-15T18:39:11.504Z,24.70
2023-03-15T18:41:38.657Z,24.10
2023-03-15T18:44:05.512Z,21.80
2023-03-15T18:46:32.569Z,22.50
2023-03-15T18:49:00.539Z,22.40
2023-03-15T18:51:27.781Z,21.10
2023-03-15T18:53:55.090Z,23.80
2023-03-15T18:56:23.863Z,22.10
2023-03-15T18:58:51.783Z,18.80
2023-03-15T19:01:19.397Z,23.40
2023-03-15T19:03:48.639Z,21.20
2023-03-15T19:06:15.481Z,21.30
2023-03-15T19:08:42.428Z,22.30
2023-03-15T19:11:10.714Z,22.40
2023-03-15T19:13:37.959Z,21.40
2023-03-15T19:16:06.336Z,19.80
2023-03-15T19:18:34.301Z,22.20
2023-03-15T19:21:07.291Z,19.40
2023-03-15T19:23:34.698Z,24.40
2023-03-15T19:26:01.688Z,24.90
2023-03-15T19:28:31.197Z,24.60
2023-03-15T19:30:58.328Z,26.70
2023-03-15T19:33:25.128Z,25.20
2023-03-15T19:35:52.217Z,25.10
2023-03-15T19:38:19.436Z,26.50
2023-03-15T19:40:54.640Z,28.40
2023-03-15T19:45:49.432Z,26.30
2023-03-15T19:48:18.429Z,27.00
2023-03-15T19:50:46.807Z,26.20
2023-03-15T19:53:16.819Z,24.90
2023-03-15T19:55:45.198Z,26.50
2023-03-15T19:58:12.862Z,25.90
2023-03-15T20:00:40.214Z,29.20
2023-03-15T20:03:07.160Z,27.70
2023-03-15T20:05:37.918Z,28.20
2023-03-15T20:08:05.536Z,27.00
2023-03-15T20:10:32.631Z,26.70
2023-03-15T20:12:59.464Z,27.00
2023-03-15T20:15:28.910Z,26.30
2023-03-15T20:17:56.305Z,25.60
2023-03-15T20:20:23.871Z,26.20
2023-03-15T20:22:51.328Z,24.20
2023-03-15T20:25:19.078Z,22.80
2023-03-15T20:27:49.673Z,24.10
2023-03-15T20:30:17.130Z,25.30
2023-03-15T20:32:44.730Z,26.20
2023-03-15T20:35:11.507Z,26.00
2023-03-15T20:37:41.853Z,25.10
2023-03-15T20:40:13.831Z,24.60
2023-03-15T20:42:46.835Z,24.70
2023-03-15T20:45:14.090Z,25.70
2023-03-15T20:47:41.118Z,28.50
2023-03-15T20:50:09.003Z,27.00
2023-03-15T20:52:36.804Z,22.70
2023-03-15T20:55:05.609Z,25.20
2023-03-15T20:57:32.758Z,30.80
2023-03-15T20:59:59.547Z,25.00
2023-03-15T21:02:26.487Z,23.80
2023-03-15T21:04:53.690Z,27.00
2023-03-15T21:07:20.591Z,27.20
2023-03-15T21:09:47.629Z,27.30
2023-03-15T21:12:15.187Z,25.70
2023-03-15T21:14:42.790Z,25.40
2023-03-15T21:17:14.000Z,28.40
2023-03-15T21:19:41.490Z,29.50
2023-03-15T21:22:11.312Z,28.70
2023-03-15T21:24:49.440Z,32.20
2023-03-15T21:27:21.848Z,29.80
2023-03-15T21:29:48.855Z,30.50
2023-03-15T21:32:15.924Z,32.10
2023-03-15T21:34:48.748Z,29.50
2023-03-15T21:37:15.568Z,28.80
2023-03-15T21:39:42.388Z,32.00
2023-03-15T21:42:11.287Z,30.30
2023-03-15T21:44:38.905Z,31.30
2023-03-15T21:47:06.202Z,29.80
2023-03-15T21:49:33.231Z,31.00
2023-03-15T21:52:01.793Z,24.20
2023-03-15T21:54:29.990Z,25.20
2023-03-15T21:56:57.039Z,23.90
2023-03-15T21:59:28.400Z,23.10
2023-03-15T22:01:56.155Z,23.20
2023-03-15T22:04:26.172Z,24.60
2023-03-15T22:06:54.139Z,25.30
2023-03-15T22:09:22.708Z,24.30
2023-03-15T22:11:49.971Z,24.20
2023-03-15T22:14:17.449Z,25.50
2023-03-15T22:16:44.376Z,25.80
2023-03-15T22:19:17.777Z,24.90
2023-03-15T22:21:45.776Z,26.70
2023-03-15T22:24:12.780Z,27.20
2023-03-15T22:26:42.354Z,24.80
2023-03-15T22:29:10.478Z,28.00
2023-03-15T22:31:37.666Z,23.20
2023-03-15T22:34:05.278Z,23.60
2023-03-15T22:36:33.256Z,22.80
2023-03-15T22:39:01.524Z,25.00
2023-03-15T22:41:28.667Z,22.60
2023-03-15T22:43:55.514Z,23.80
2023-03-15T22:46:22.467Z,26.10
2023-03-15T22:48:49.813Z,25.80
2023-03-15T22:51:16.790Z,24.70
2023-03-15T22:53:43.810Z,25.20
2023-03-15T22:56:10.564Z,28.00
2023-03-15T22:58:38.314Z,27.80
2023-03-15T23:01:05.228Z,27.30
2023-03-15T23:03:32.410Z,21.00
2023-03-15T23:05:59.859Z,24.90
2023-03-15T23:08:26.701Z,23.70
2023-03-15T23:10:57.022Z,27.60
2023-03-15T23:13:23.883Z,24.00
2023-03-15T23:15:51.061Z,24.30
2023-03-15T23:18:18.596Z,25.90
2023-03-15T23:20:45.423Z,28.50
2023-03-15T23:23:14.106Z,23.40
2023-03-15T23:25:41.252Z,25.00
2023-03-15T23:28:08.041Z,21.50
2023-03-15T23:30:36.412Z,23.10
2023-03-15T23:33:03.755Z,18.00
2023-03-15T23:35:33.421Z,19.30
2023-03-15T23:38:01.403Z,17.30
2023-03-15T23:40:29.806Z,18.80
2023-03-15T23:43:00.005Z,16.90
2023-03-15T23:45:28.992Z,20.30
2023-03-15T23:47:56.158Z,16.60
2023-03-15T23:50:27.117Z,18.50
2023-03-15T23:52:55.011Z,17.20
2023-03-15T23:55:23.124Z,18.90
2023-03-15T23:57:50.455Z,18.40
